Accueil
METAR-TAF:

METAR-TAF

Aéroports :

Pian Rosa, Italie

latitude: 45-56N, longitude: 007-42E, altitude: 3480 m

Observation

Le bulletin a été fait il y a 38 minutes, à 18:55 UTC
Vent 18 kt de est/nord-est
Température -4°C
Humidité 86%
Pression 1023 hPa
Visibilité: 0800 m
brouillard givrant

METAR: LIMH 041855Z 06018KT 0800 FZFG VV/// M04/M06 Q1023 RMK MON INVIS VAL INVIS VIS MIN 0800

Heure: 21:33 (19:33 UTC)


TAF: absent

Observations et prévisions météorologiques de plus de 4000 aéroports (messages METAR et TAF).

Les stations disponibles sont représentées par des disques jaunes et rouges sur la carte.

Passer la souris dessus pour voir le nom de la station.

Cliquer dessus pour voir les observations et prévisions météorologiques.

Pour changer de carte: cliquez sur les boutons verts avec une croix noire pour zoomer, sur le bouton vert avec un tiret pour effectuer un zoom arrière, ou sur les flèches vertes pour les cartes adjacentes.


METAR-TAF: